Weather at Sultan Abdul Aziz Shah International Airport

Public forecast

Using degrees Celsius for public forecast. Weather courtesy of forecast.io.

Current aviation weather report (METAR) for Sultan Abdul Aziz Shah International Airport

2024/02/24 04:00 (retrieved 14 minutes ago)

WMSA 240400Z 25004KT 210V300 9999 SCT018 31/25 Q1013

Closest aviation forecast (TAF) to Sultan Abdul Aziz Shah International Airport

Forecast is more than 12 hours old.

Closest forecast is Aden Adde International Airport, 3,373.8 nm (6,248.4 km) W.

2024/02/22 12:54 (retrieved 2 days ago)

TAF HCMM 221100Z 2212/2318 07017KT CAVOK BECMG 2300/2302 04010KT BKN020 BECMG 2309/2311 07018KT FEW024